createdAt,value
2019-04-16T00:04:24.973Z,9.16
2019-04-16T00:09:31.757Z,8.43
2019-04-16T00:14:40.118Z,9.88
2019-04-16T00:19:48.374Z,7.12
2019-04-16T00:24:56.672Z,8.13
2019-04-16T00:30:05.405Z,10.67
2019-04-16T00:35:15.376Z,7.76
2019-04-16T00:40:20.730Z,7.45
2019-04-16T00:45:29.210Z,7.44
2019-04-16T00:50:37.393Z,7.30
2019-04-16T00:55:45.894Z,7.96
2019-04-16T01:00:54.111Z,7.24
2019-04-16T01:06:06.759Z,7.37
2019-04-16T01:11:10.191Z,9.17
2019-04-16T01:16:18.557Z,7.91
2019-04-16T01:21:26.958Z,7.27
2019-04-16T01:26:35.415Z,8.27
2019-04-16T01:31:43.610Z,7.95
2019-04-16T01:36:54.347Z,6.83
2019-04-16T01:41:59.773Z,7.99
2019-04-16T01:47:08.408Z,7.36
2019-04-16T01:52:18.702Z,7.67
2019-04-16T01:57:23.784Z,7.46
2019-04-16T02:02:32.245Z,9.09
2019-04-16T02:07:40.647Z,7.55
2019-04-16T02:12:48.726Z,7.40
2019-04-16T02:17:58.815Z,9.06
2019-04-16T02:23:04.477Z,7.48
2019-04-16T02:28:12.948Z,8.54
2019-04-16T02:33:21.073Z,8.26
2019-04-16T02:38:29.198Z,8.92
2019-04-16T02:43:40.995Z,9.26
2019-04-16T02:48:49.970Z,8.21
2019-04-16T02:53:54.552Z,8.80
2019-04-16T02:59:00.330Z,7.56
2019-04-16T03:04:08.650Z,9.91
2019-04-16T03:09:17.152Z,8.30
2019-04-16T03:14:29.812Z,10.04
2019-04-16T03:19:32.891Z,9.64
2019-04-16T03:24:41.266Z,8.49
2019-04-16T03:29:49.536Z,7.98
2019-04-16T03:34:57.685Z,9.65
2019-04-16T03:40:16.214Z,9.54
2019-04-16T03:45:13.445Z,8.82
2019-04-16T03:50:21.721Z,8.45
2019-04-16T03:55:30.179Z,9.85
2019-04-16T04:00:43.672Z,9.27
2019-04-16T04:05:48.191Z,8.70
2019-04-16T04:10:57.602Z,7.87
2019-04-16T04:16:06.070Z,8.93
2019-04-16T04:21:14.609Z,8.84
2019-04-16T04:26:23.117Z,8.40
2019-04-16T04:31:32.392Z,8.81
2019-04-16T04:36:39.112Z,10.12
2019-04-16T04:41:47.596Z,8.63
2019-04-16T04:46:55.913Z,9.14
2019-04-16T04:52:04.132Z,9.85
2019-04-16T04:57:12.340Z,10.21
2019-04-16T05:02:21.287Z,10.42
2019-04-16T05:07:29.518Z,10.26
2019-04-16T05:12:37.805Z,9.46
2019-04-16T05:17:46.333Z,11.64
2019-04-16T05:22:57.779Z,9.25
2019-04-16T05:28:02.373Z,12.01
2019-04-16T05:33:11.006Z,14.82
2019-04-16T05:38:20.428Z,10.64
2019-04-16T05:43:30.073Z,10.34
2019-04-16T05:48:34.894Z,10.01
2019-04-16T05:53:43.188Z,10.82
2019-04-16T05:58:51.774Z,9.07
2019-04-16T06:04:00.046Z,9.18
2019-04-16T06:09:11.933Z,10.92
2019-04-16T06:14:17.583Z,11.03
2019-04-16T06:19:23.573Z,9.03
2019-04-16T06:24:32.407Z,9.95
2019-04-16T06:29:39.531Z,10.05
2019-04-16T06:34:47.738Z,9.10
2019-04-16T06:40:00.672Z,9.30
2019-04-16T06:45:04.836Z,10.12
2019-04-16T06:50:11.423Z,9.58
2019-04-16T06:55:20.445Z,10.88
2019-04-16T07:00:33.710Z,10.31
2019-04-16T07:05:37.403Z,9.45
2019-04-16T07:10:46.354Z,10.88
2019-04-16T07:16:03.397Z,12.75
2019-04-16T07:21:02.654Z,8.43
2019-04-16T07:26:14.533Z,8.69
2019-04-16T07:31:33.007Z,11.64
2019-04-16T07:36:27.266Z,10.16
2019-04-16T07:41:34.582Z,10.22
2019-04-16T07:46:44.236Z,9.40
2019-04-16T07:51:52.864Z,8.97
2019-04-16T07:56:51.129Z,11.02
2019-04-16T08:01:59.677Z,10.48
2019-04-16T08:07:08.139Z,11.31
2019-04-16T08:12:29.330Z,10.57
2019-04-16T08:17:24.126Z,11.02
2019-04-16T08:22:32.510Z,10.53
2019-04-16T08:27:41.017Z,12.44
2019-04-16T08:32:49.778Z,9.98
2019-04-16T08:37:58.820Z,10.66
2019-04-16T08:43:05.902Z,11.00
2019-04-16T08:48:18.696Z,11.15
2019-04-16T08:53:22.278Z,12.30
2019-04-16T08:58:30.670Z,9.50
2019-04-16T09:03:38.994Z,11.17
2019-04-16T09:08:47.299Z,9.96
2019-04-16T09:13:56.205Z,11.36
2019-04-16T09:19:04.228Z,10.50
2019-04-16T09:24:12.606Z,11.35
2019-04-16T09:29:20.850Z,11.01
2019-04-16T09:34:29.046Z,10.87
2019-04-16T09:39:37.261Z,11.58
2019-04-16T09:44:45.569Z,10.91
2019-04-16T09:49:53.922Z,10.01
2019-04-16T09:55:02.211Z,14.32
2019-04-16T10:00:10.403Z,11.31
2019-04-16T10:05:19.126Z,9.85
2019-04-16T10:10:27.959Z,10.53
2019-04-16T10:15:36.867Z,11.95
2019-04-16T10:20:35.007Z,11.41
2019-04-16T10:25:43.272Z,13.03
2019-04-16T10:30:51.554Z,12.80
2019-04-16T10:36:01.101Z,12.46
2019-04-16T10:41:07.994Z,11.22
2019-04-16T10:46:16.643Z,11.37
2019-04-16T10:51:25.003Z,11.57
2019-04-16T10:56:35.742Z,11.14
2019-04-16T11:01:35.432Z,11.15
2019-04-16T11:06:43.230Z,11.32
2019-04-16T11:11:51.554Z,12.28
2019-04-16T11:16:59.962Z,13.87
2019-04-16T11:22:08.483Z,12.54
2019-04-16T11:27:18.322Z,13.28
2019-04-16T11:32:26.549Z,13.37
2019-04-16T11:37:36.215Z,11.30
2019-04-16T11:42:42.854Z,11.60
2019-04-16T11:47:51.432Z,10.03
2019-04-16T11:52:59.881Z,10.49
2019-04-16T11:58:08.268Z,11.32
2019-04-16T12:03:16.471Z,10.62
2019-04-16T12:08:24.781Z,10.96
2019-04-16T12:13:33.194Z,10.95
2019-04-16T12:18:41.430Z,12.46
2019-04-16T12:23:49.769Z,10.57
2019-04-16T12:28:58.198Z,10.50
2019-04-16T12:34:06.414Z,11.62
2019-04-16T12:39:19.541Z,11.38
2019-04-16T12:44:16.008Z,10.64
2019-04-16T12:49:24.284Z,10.13
2019-04-16T12:54:32.593Z,9.66
2019-04-16T12:59:40.999Z,8.99
2019-04-16T13:04:49.490Z,9.51
2019-04-16T13:10:11.476Z,9.62
2019-04-16T13:15:01.103Z,9.84
2019-04-16T13:20:07.430Z,10.04
2019-04-16T13:25:15.611Z,9.16
2019-04-16T13:30:24.105Z,9.93
2019-04-16T13:35:32.702Z,11.06
2019-04-16T13:40:41.514Z,9.36
2019-04-16T13:45:48.843Z,8.95
2019-04-16T13:50:57.164Z,9.98
2019-04-16T13:56:05.764Z,11.49
2019-04-16T14:01:14.646Z,9.01
2019-04-16T14:06:23.331Z,10.01
2019-04-16T14:11:31.622Z,10.56
2019-04-16T14:16:40.886Z,9.63
2019-04-16T14:21:47.534Z,8.25
2019-04-16T14:26:55.933Z,8.33
2019-04-16T14:32:04.361Z,7.09
2019-04-16T14:37:12.717Z,7.80
2019-04-16T14:42:22.234Z,7.38
2019-04-16T14:47:29.969Z,7.78
2019-04-16T14:52:36.007Z,7.75
2019-04-16T14:57:44.338Z,8.75
2019-04-16T15:02:52.578Z,8.74
2019-04-16T15:08:01.133Z,8.67
2019-04-16T15:13:09.366Z,8.41
2019-04-16T15:18:17.487Z,10.19
2019-04-16T15:23:26.624Z,8.28
2019-04-16T15:28:35.452Z,9.94
2019-04-16T15:33:44.906Z,9.07
2019-04-16T15:38:55.556Z,8.61
2019-04-16T15:43:53.679Z,10.12
2019-04-16T15:49:02.374Z,11.38
2019-04-16T15:54:10.754Z,12.77
2019-04-16T15:59:19.478Z,12.06
2019-04-16T16:04:27.701Z,11.27
2019-04-16T16:09:37.552Z,13.14
2019-04-16T16:14:43.905Z,12.76
2019-04-16T16:19:52.321Z,12.38
2019-04-16T16:25:00.617Z,12.70
2019-04-16T16:30:15.029Z,13.17
2019-04-16T16:35:11.081Z,12.06
2019-04-16T16:40:19.414Z,12.55
2019-04-16T16:45:27.921Z,15.54
2019-04-16T16:50:36.403Z,13.97
2019-04-16T16:55:44.705Z,13.72
2019-04-16T17:00:59.163Z,13.54
2019-04-16T17:06:01.195Z,13.82
2019-04-16T17:11:16.735Z,13.60
2019-04-16T17:16:17.734Z,13.40
2019-04-16T17:21:26.838Z,13.10
2019-04-16T17:26:36.361Z,14.96
2019-04-16T17:31:44.975Z,13.28
2019-04-16T17:36:53.694Z,13.03
2019-04-16T17:42:04.602Z,13.87
2019-04-16T17:47:10.436Z,12.61
2019-04-16T17:52:19.078Z,11.33
2019-04-16T17:57:29.837Z,10.93
2019-04-16T18:02:35.199Z,11.83
2019-04-16T18:07:43.890Z,11.14
2019-04-16T18:12:55.248Z,12.24
2019-04-16T18:18:01.650Z,11.66
2019-04-16T18:23:08.083Z,12.31
2019-04-16T18:28:16.880Z,13.02
2019-04-16T18:33:25.321Z,11.94
2019-04-16T18:38:33.485Z,12.84
2019-04-16T18:43:41.734Z,11.96
2019-04-16T18:48:49.958Z,12.10
2019-04-16T18:53:58.081Z,13.17
2019-04-16T18:59:06.253Z,11.63
2019-04-16T19:04:14.377Z,12.41
2019-04-16T19:09:22.582Z,14.14
2019-04-16T19:14:30.706Z,12.75
2019-04-16T19:19:44.324Z,13.08
2019-04-16T19:24:46.571Z,13.38
2019-04-16T19:29:54.738Z,13.79
2019-04-16T19:35:09.970Z,14.38
2019-04-16T19:40:10.437Z,15.80
2019-04-16T19:45:18.536Z,13.54
2019-04-16T19:50:33.066Z,16.13
2019-04-16T19:55:34.298Z,13.58
2019-04-16T20:00:43.087Z,12.94
2019-04-16T20:05:51.290Z,13.41
2019-04-16T20:10:59.701Z,11.95
2019-04-16T20:16:07.594Z,12.39
2019-04-16T20:21:15.761Z,13.44
2019-04-16T20:26:23.872Z,12.86
2019-04-16T20:31:32.056Z,11.57
2019-04-16T20:36:40.155Z,12.72
2019-04-16T20:41:52.733Z,12.79
2019-04-16T20:46:58.257Z,11.73
2019-04-16T20:52:03.582Z,13.84
2019-04-16T20:57:11.999Z,11.63
2019-04-16T21:02:20.481Z,10.67
2019-04-16T21:07:28.625Z,10.91
2019-04-16T21:12:36.780Z,12.12
2019-04-16T21:17:45.146Z,11.63
2019-04-16T21:22:57.545Z,10.67
2019-04-16T21:28:02.276Z,11.82
2019-04-16T21:33:10.468Z,11.00
2019-04-16T21:38:18.525Z,9.88
2019-04-16T21:43:26.641Z,10.68
2019-04-16T21:48:34.725Z,9.95
2019-04-16T21:53:43.124Z,11.19
2019-04-16T21:58:51.238Z,10.82
2019-04-16T22:03:59.389Z,9.85
2019-04-16T22:09:07.542Z,10.46
2019-04-16T22:14:15.742Z,10.39
2019-04-16T22:19:23.846Z,10.09
2019-04-16T22:24:31.972Z,10.12
2019-04-16T22:29:40.108Z,12.33
2019-04-16T22:34:48.187Z,11.76
2019-04-16T22:39:57.517Z,11.49
2019-04-16T22:45:05.626Z,12.33
2019-04-16T22:50:16.024Z,12.40
2019-04-16T22:55:24.301Z,11.24
2019-04-16T23:00:28.750Z,13.14
2019-04-16T23:05:36.853Z,13.06
2019-04-16T23:10:45.160Z,12.33
2019-04-16T23:15:53.325Z,12.34
2019-04-16T23:21:01.456Z,12.82
2019-04-16T23:26:09.718Z,12.78
2019-04-16T23:31:19.548Z,12.42
2019-04-16T23:36:25.479Z,11.60
2019-04-16T23:41:33.668Z,12.25
2019-04-16T23:46:41.770Z,11.91
2019-04-16T23:51:49.895Z,12.68
2019-04-16T23:56:58.489Z,13.58
